createdAt,value
2022-10-17T00:02:11.803Z,13.90
2022-10-17T00:04:38.682Z,13.90
2022-10-17T00:07:05.367Z,13.90
2022-10-17T00:09:32.106Z,13.90
2022-10-17T00:11:58.839Z,13.90
2022-10-17T00:14:25.562Z,13.90
2022-10-17T00:16:52.224Z,13.90
2022-10-17T00:19:18.944Z,13.90
2022-10-17T00:21:45.748Z,13.80
2022-10-17T00:24:12.477Z,13.80
2022-10-17T00:26:39.171Z,13.80
2022-10-17T00:29:06.086Z,13.80
2022-10-17T00:31:32.806Z,13.80
2022-10-17T00:33:59.645Z,13.80
2022-10-17T00:36:29.417Z,13.80
2022-10-17T00:38:57.655Z,13.80
2022-10-17T00:41:25.789Z,13.90
2022-10-17T00:44:03.407Z,13.90
2022-10-17T00:46:31.191Z,13.90
2022-10-17T00:48:59.544Z,14.00
2022-10-17T00:51:30.323Z,13.90
2022-10-17T00:53:57.211Z,13.90
2022-10-17T00:56:23.981Z,13.80
2022-10-17T00:58:50.859Z,13.80
2022-10-17T01:01:17.593Z,13.80
2022-10-17T01:03:44.462Z,13.80
2022-10-17T01:06:11.222Z,13.70
2022-10-17T01:08:38.205Z,13.70
2022-10-17T01:11:22.607Z,13.60
2022-10-17T01:13:52.622Z,13.60
2022-10-17T01:16:36.241Z,13.50
2022-10-17T01:22:07.167Z,13.40
2022-10-17T01:24:52.615Z,13.40
2022-10-17T01:27:46.989Z,13.30
2022-10-17T01:30:32.440Z,13.30
2022-10-17T01:33:05.547Z,13.20
2022-10-17T01:35:37.197Z,13.10
2022-10-17T01:38:04.571Z,13.10
2022-10-17T01:40:37.015Z,13.00
2022-10-17T01:43:11.214Z,13.00
2022-10-17T01:45:43.415Z,13.00
2022-10-17T01:48:14.330Z,12.90
2022-10-17T01:50:46.669Z,12.90
2022-10-17T01:53:16.327Z,12.90
2022-10-17T01:55:45.839Z,12.80
2022-10-17T01:58:14.045Z,12.80
2022-10-17T02:00:42.843Z,12.70
2022-10-17T02:03:12.255Z,12.70
2022-10-17T02:05:40.032Z,12.70
2022-10-17T02:08:07.205Z,12.60
2022-10-17T02:10:53.891Z,12.60
2022-10-17T02:13:37.770Z,12.60
2022-10-17T02:16:10.681Z,12.50
2022-10-17T02:18:44.816Z,12.50
2022-10-17T02:21:15.775Z,12.50
2022-10-17T02:24:01.063Z,12.50
2022-10-17T02:26:33.789Z,12.50
2022-10-17T02:29:05.004Z,12.50
2022-10-17T02:31:35.978Z,12.50
2022-10-17T02:34:04.962Z,12.40
2022-10-17T02:36:35.938Z,12.40
2022-10-17T02:39:04.135Z,12.40
2022-10-17T02:41:31.492Z,12.50
2022-10-17T02:44:01.590Z,12.50
2022-10-17T02:46:30.574Z,12.50
2022-10-17T02:49:04.027Z,12.50
2022-10-17T02:51:42.690Z,12.40
2022-10-17T02:54:13.778Z,12.40
2022-10-17T02:56:44.105Z,12.30
2022-10-17T02:59:12.271Z,12.30
2022-10-17T03:01:39.244Z,12.30
2022-10-17T03:04:10.642Z,12.30
2022-10-17T03:06:37.508Z,12.40
2022-10-17T03:09:04.379Z,12.30
2022-10-17T03:11:31.361Z,12.30
2022-10-17T03:13:58.037Z,12.30
2022-10-17T03:16:25.226Z,12.30
2022-10-17T03:18:52.705Z,12.30
2022-10-17T03:21:19.458Z,12.30
2022-10-17T03:23:46.198Z,12.30
2022-10-17T03:26:14.488Z,12.30
2022-10-17T03:28:41.343Z,12.20
2022-10-17T03:31:13.189Z,12.20
2022-10-17T03:33:40.705Z,12.20
2022-10-17T03:36:08.572Z,12.30
2022-10-17T03:38:35.974Z,12.30
2022-10-17T03:41:03.686Z,12.30
2022-10-17T03:43:32.385Z,12.30
2022-10-17T03:45:59.644Z,12.40
2022-10-17T03:48:26.949Z,12.40
2022-10-17T03:50:58.633Z,12.40
2022-10-17T03:53:26.447Z,12.40
2022-10-17T03:55:53.498Z,12.40
2022-10-17T03:58:20.273Z,12.40
2022-10-17T04:00:48.026Z,12.40
2022-10-17T04:03:17.233Z,12.30
2022-10-17T04:05:44.262Z,12.30
2022-10-17T04:08:11.296Z,12.20
2022-10-17T04:11:00.364Z,12.20
2022-10-17T04:13:28.050Z,12.10
2022-10-17T04:15:55.754Z,12.10
2022-10-17T04:18:22.618Z,12.10
2022-10-17T04:20:49.387Z,12.10
2022-10-17T04:23:16.443Z,12.00
2022-10-17T04:25:43.287Z,12.00
2022-10-17T04:28:10.317Z,12.00
2022-10-17T04:30:41.134Z,11.90
2022-10-17T04:33:10.397Z,11.90
2022-10-17T04:35:37.164Z,11.90
2022-10-17T04:38:06.103Z,11.80
2022-10-17T04:40:33.123Z,11.80
2022-10-17T04:43:00.164Z,11.70
2022-10-17T04:45:34.107Z,11.70
2022-10-17T04:48:03.616Z,11.60
2022-10-17T04:50:30.426Z,11.60
2022-10-17T04:53:18.487Z,11.60
2022-10-17T04:55:45.231Z,11.60
2022-10-17T04:58:12.140Z,11.60
2022-10-17T05:00:39.213Z,11.50
2022-10-17T05:03:16.734Z,11.50
2022-10-17T05:05:43.640Z,11.40
2022-10-17T05:08:11.751Z,11.40
2022-10-17T05:10:39.636Z,11.30
2022-10-17T05:13:08.614Z,11.30
2022-10-17T05:15:36.289Z,11.30
2022-10-17T05:18:03.928Z,11.30
2022-10-17T05:20:30.978Z,11.30
2022-10-17T05:23:00.772Z,11.30
2022-10-17T05:25:32.555Z,11.30
2022-10-17T05:27:59.285Z,11.30
2022-10-17T05:30:26.082Z,11.30
2022-10-17T05:32:59.431Z,11.30
2022-10-17T05:35:26.294Z,11.30
2022-10-17T05:37:53.239Z,11.30
2022-10-17T05:40:21.505Z,11.30
2022-10-17T05:42:52.401Z,11.30
2022-10-17T05:45:19.628Z,11.30
2022-10-17T05:47:46.593Z,11.30
2022-10-17T05:50:13.321Z,11.40
2022-10-17T05:53:01.889Z,11.40
2022-10-17T05:55:28.647Z,11.40
2022-10-17T05:57:55.719Z,11.50
2022-10-17T06:00:25.197Z,11.60
2022-10-17T06:02:58.262Z,11.60
2022-10-17T06:05:25.247Z,11.70
2022-10-17T06:07:58.226Z,11.80
2022-10-17T06:10:29.721Z,12.00
2022-10-17T06:12:57.615Z,12.10
2022-10-17T06:15:25.769Z,12.20
2022-10-17T06:17:59.552Z,12.50
2022-10-17T06:20:26.356Z,12.60
2022-10-17T06:22:53.086Z,12.90
2022-10-17T06:25:34.017Z,13.20
2022-10-17T06:28:00.972Z,13.60
2022-10-17T06:30:28.165Z,14.20
2022-10-17T06:32:54.992Z,15.10
2022-10-17T06:35:21.783Z,16.10
2022-10-17T06:37:48.531Z,16.80
2022-10-17T06:40:16.961Z,17.40
2022-10-17T06:42:44.775Z,18.20
2022-10-17T06:45:47.687Z,19.10
2022-10-17T06:48:17.954Z,20.30
2022-10-17T06:51:01.708Z,21.30
2022-10-17T06:53:29.210Z,22.10
2022-10-17T06:56:10.826Z,22.60
2022-10-17T06:58:48.049Z,23.10
2022-10-17T07:01:29.883Z,23.20
2022-10-17T07:03:58.728Z,23.00
2022-10-17T07:06:25.987Z,22.50
2022-10-17T07:08:55.773Z,22.00
2022-10-17T07:11:23.316Z,21.20
2022-10-17T07:13:52.398Z,20.60
2022-10-17T07:16:21.581Z,20.10
2022-10-17T07:18:54.971Z,19.70
2022-10-17T07:21:22.108Z,19.20
2022-10-17T07:23:48.970Z,18.80
2022-10-17T07:26:17.271Z,18.40
2022-10-17T07:28:45.726Z,18.10
2022-10-17T07:31:33.823Z,17.60
2022-10-17T07:34:00.987Z,17.20
2022-10-17T07:36:28.350Z,16.90
2022-10-17T07:38:56.854Z,16.80
2022-10-17T07:41:24.961Z,16.70
2022-10-17T07:43:51.754Z,16.90
2022-10-17T07:46:22.207Z,17.10
2022-10-17T07:48:49.732Z,17.40
2022-10-17T07:51:20.333Z,17.80
2022-10-17T07:53:48.862Z,18.10
2022-10-17T07:56:15.856Z,18.50
2022-10-17T07:58:42.514Z,18.80
2022-10-17T08:01:15.375Z,19.50
2022-10-17T08:03:46.690Z,21.00
2022-10-17T08:06:13.510Z,22.40
2022-10-17T08:08:40.852Z,23.70
2022-10-17T08:11:08.824Z,25.20
2022-10-17T08:13:36.090Z,26.60
2022-10-17T08:16:03.791Z,27.50
2022-10-17T08:18:30.693Z,27.70
2022-10-17T08:21:00.712Z,27.50
2022-10-17T08:23:28.009Z,27.20
2022-10-17T08:25:54.702Z,26.80
2022-10-17T08:28:21.542Z,26.30
2022-10-17T08:30:48.378Z,25.80
2022-10-17T08:33:15.173Z,25.40
2022-10-17T08:35:41.849Z,25.50
2022-10-17T08:38:11.045Z,26.20
2022-10-17T08:40:42.811Z,26.90
2022-10-17T08:43:27.606Z,27.00
2022-10-17T08:46:00.537Z,27.20
2022-10-17T08:48:28.526Z,28.00
2022-10-17T08:50:55.348Z,28.60
2022-10-17T08:53:31.360Z,29.00
2022-10-17T08:55:59.751Z,29.80
2022-10-17T08:58:31.453Z,30.60
2022-10-17T09:01:16.766Z,31.10
2022-10-17T09:04:02.215Z,31.60
2022-10-17T09:06:37.306Z,31.70
2022-10-17T09:09:10.209Z,31.60
2022-10-17T09:11:45.410Z,31.50
2022-10-17T09:14:12.276Z,31.60
2022-10-17T09:16:45.002Z,31.60
2022-10-17T09:19:18.026Z,31.80
2022-10-17T09:21:51.513Z,31.70
2022-10-17T09:24:20.606Z,31.60
2022-10-17T09:26:47.266Z,31.50
2022-10-17T09:29:21.970Z,31.50
2022-10-17T09:32:01.614Z,31.50
2022-10-17T09:34:29.505Z,31.60
2022-10-17T09:36:58.512Z,32.00
2022-10-17T09:39:31.818Z,32.40
2022-10-17T09:42:01.872Z,32.90
2022-10-17T09:44:42.728Z,33.30
2022-10-17T09:47:15.581Z,33.40
2022-10-17T09:49:43.502Z,32.90
2022-10-17T09:52:12.630Z,32.10
2022-10-17T09:54:48.089Z,31.60
2022-10-17T09:57:16.319Z,31.00
2022-10-17T09:59:46.159Z,30.70
2022-10-17T10:02:12.985Z,30.70
2022-10-17T10:05:07.654Z,30.80
2022-10-17T10:07:37.074Z,31.00
2022-10-17T10:10:05.166Z,30.80
2022-10-17T10:12:38.979Z,30.40
2022-10-17T10:15:24.480Z,30.40
2022-10-17T10:17:51.208Z,30.70
2022-10-17T10:20:25.948Z,31.20
2022-10-17T10:23:08.218Z,31.90
2022-10-17T10:25:35.303Z,32.50
2022-10-17T10:28:02.460Z,32.70
2022-10-17T10:30:31.436Z,32.30
2022-10-17T10:33:00.814Z,31.80
2022-10-17T10:35:35.051Z,31.40
2022-10-17T10:38:03.174Z,30.80
2022-10-17T10:40:37.318Z,30.40
2022-10-17T10:43:05.776Z,30.20
2022-10-17T10:45:47.457Z,30.20
2022-10-17T10:48:21.694Z,30.30
2022-10-17T10:50:51.399Z,30.30
2022-10-17T10:53:35.447Z,30.50
2022-10-17T10:56:19.881Z,30.80
2022-10-17T10:58:53.698Z,31.20
2022-10-17T11:01:29.643Z,31.60
2022-10-17T11:03:56.582Z,31.60
2022-10-17T11:06:27.381Z,31.90
2022-10-17T11:08:54.085Z,32.20
2022-10-17T11:11:27.778Z,32.40
2022-10-17T11:14:00.597Z,32.60
2022-10-17T11:16:35.784Z,32.90
2022-10-17T11:19:14.051Z,33.00
2022-10-17T11:21:48.285Z,32.70
2022-10-17T11:24:19.195Z,32.60
2022-10-17T11:26:49.557Z,32.40
2022-10-17T11:29:17.139Z,32.40
2022-10-17T11:31:50.827Z,32.50
2022-10-17T11:34:20.703Z,32.30
2022-10-17T11:36:49.468Z,32.30
2022-10-17T11:39:18.509Z,32.10
2022-10-17T11:41:55.425Z,31.50
2022-10-17T11:44:28.775Z,30.80
2022-10-17T11:47:07.393Z,30.70
2022-10-17T11:49:39.944Z,31.20
2022-10-17T11:52:31.596Z,31.80
2022-10-17T11:55:06.513Z,32.10
2022-10-17T11:57:56.743Z,32.20
2022-10-17T12:00:42.782Z,32.10
2022-10-17T12:03:30.049Z,31.70
2022-10-17T12:06:08.988Z,31.40
2022-10-17T12:08:54.636Z,31.40
2022-10-17T12:11:24.571Z,31.50
2022-10-17T12:13:53.017Z,31.80
2022-10-17T12:16:19.869Z,31.90
2022-10-17T12:18:51.970Z,32.10
2022-10-17T12:21:18.876Z,32.40
2022-10-17T12:23:53.001Z,32.50
2022-10-17T12:26:26.674Z,32.40
2022-10-17T12:28:53.492Z,32.50
2022-10-17T12:31:21.703Z,32.30
2022-10-17T12:33:50.809Z,32.10
2022-10-17T12:36:17.626Z,32.30
2022-10-17T12:38:49.218Z,32.60
2022-10-17T12:41:17.608Z,32.60
2022-10-17T12:43:44.951Z,32.70
2022-10-17T12:46:12.193Z,33.00
2022-10-17T12:48:42.062Z,33.40
2022-10-17T12:51:37.912Z,33.50
2022-10-17T12:54:25.786Z,33.40
2022-10-17T12:57:19.791Z,33.30
2022-10-17T13:00:29.180Z,33.10
2022-10-17T13:03:18.189Z,33.20
2022-10-17T13:06:06.567Z,33.00
2022-10-17T13:09:01.037Z,32.70
2022-10-17T13:11:50.684Z,32.90
2022-10-17T13:14:39.057Z,33.00
2022-10-17T13:17:27.603Z,33.00
2022-10-17T13:20:28.854Z,33.00
2022-10-17T13:23:25.738Z,33.10
2022-10-17T13:26:12.725Z,32.60
2022-10-17T13:29:13.301Z,31.60
2022-10-17T13:32:01.870Z,30.70
2022-10-17T13:35:04.981Z,30.70
2022-10-17T13:37:54.060Z,31.40
2022-10-17T13:40:50.012Z,32.10
2022-10-17T13:43:38.828Z,32.30
2022-10-17T13:46:39.553Z,32.20
2022-10-17T13:49:40.572Z,32.20
2022-10-17T13:52:29.303Z,32.50
2022-10-17T13:55:17.920Z,32.60
2022-10-17T13:58:31.698Z,32.00
2022-10-17T14:01:20.541Z,31.60
2022-10-17T14:04:13.699Z,32.10
2022-10-17T14:07:07.400Z,32.20
2022-10-17T14:09:54.561Z,32.30
2022-10-17T14:12:42.723Z,32.30
2022-10-17T14:15:31.220Z,32.10
2022-10-17T14:18:20.227Z,31.80
2022-10-17T14:24:15.178Z,31.30
2022-10-17T14:27:02.212Z,31.20
2022-10-17T14:29:53.809Z,31.30
2022-10-17T14:32:43.079Z,31.10
2022-10-17T14:35:41.653Z,30.70
2022-10-17T14:38:29.919Z,30.30
2022-10-17T14:41:43.796Z,29.80
2022-10-17T14:44:32.654Z,29.50
2022-10-17T14:50:33.418Z,28.90
2022-10-17T14:53:21.539Z,28.70
2022-10-17T14:56:22.666Z,28.40
2022-10-17T14:59:21.557Z,28.00
2022-10-17T15:02:17.461Z,27.70
2022-10-17T15:05:06.478Z,27.40
2022-10-17T15:07:56.470Z,27.10
2022-10-17T15:10:44.350Z,27.00
2022-10-17T15:13:36.779Z,27.10
2022-10-17T15:16:31.262Z,27.00
2022-10-17T15:19:18.364Z,26.90
2022-10-17T15:22:05.417Z,26.60
2022-10-17T15:24:52.428Z,26.40
2022-10-17T15:27:39.440Z,26.10
2022-10-17T15:30:35.646Z,25.70
2022-10-17T15:33:22.726Z,25.40
2022-10-17T15:36:20.536Z,25.10
2022-10-17T15:39:07.898Z,24.90
2022-10-17T15:41:55.072Z,24.70
2022-10-17T15:44:44.457Z,24.50
2022-10-17T15:47:35.279Z,24.40
2022-10-17T15:50:22.594Z,24.30
2022-10-17T15:53:12.820Z,24.30
2022-10-17T15:56:00.226Z,24.10
2022-10-17T15:58:47.786Z,23.90
2022-10-17T16:01:35.050Z,23.70
2022-10-17T16:04:23.981Z,23.50
2022-10-17T16:07:11.128Z,23.40
2022-10-17T16:09:58.236Z,23.30
2022-10-17T16:12:45.896Z,23.10
2022-10-17T16:15:32.959Z,23.00
2022-10-17T16:18:21.142Z,22.90
2022-10-17T16:21:09.946Z,22.70
2022-10-17T16:23:57.673Z,22.60
2022-10-17T16:26:44.805Z,22.50
2022-10-17T16:29:31.996Z,22.40
2022-10-17T16:32:19.036Z,22.40
2022-10-17T16:35:06.558Z,22.30
2022-10-17T16:37:54.069Z,22.20
2022-10-17T16:40:41.242Z,22.10
2022-10-17T16:43:30.123Z,22.00
2022-10-17T16:46:17.474Z,21.90
2022-10-17T16:49:05.087Z,21.70
2022-10-17T16:51:52.124Z,21.60
2022-10-17T16:54:39.153Z,21.50
2022-10-17T16:57:26.325Z,21.40
2022-10-17T17:00:14.084Z,21.40
2022-10-17T17:03:01.218Z,21.30
2022-10-17T17:05:52.058Z,21.30
2022-10-17T17:08:39.133Z,21.30
2022-10-17T17:11:27.363Z,21.30
2022-10-17T17:14:08.248Z,21.20
2022-10-17T17:16:35.619Z,21.10
2022-10-17T17:19:04.546Z,20.90
2022-10-17T17:21:31.831Z,20.80
2022-10-17T17:23:59.202Z,20.70
2022-10-17T17:26:27.175Z,20.50
2022-10-17T17:28:54.487Z,20.40
2022-10-17T17:31:23.396Z,20.30
2022-10-17T17:33:50.849Z,20.20
2022-10-17T17:36:19.311Z,20.10
2022-10-17T17:38:46.633Z,20.00
2022-10-17T17:41:14.422Z,19.90
2022-10-17T17:43:41.965Z,19.90
2022-10-17T17:46:09.162Z,19.70
2022-10-17T17:48:39.965Z,19.80
2022-10-17T17:51:07.951Z,19.70
2022-10-17T17:53:35.196Z,19.70
2022-10-17T17:56:05.992Z,19.70
2022-10-17T17:58:33.058Z,19.80
2022-10-17T18:01:00.198Z,19.90
2022-10-17T18:03:27.588Z,20.00
2022-10-17T18:05:54.505Z,20.10
2022-10-17T18:08:21.411Z,20.20
2022-10-17T18:10:56.406Z,20.30
2022-10-17T18:13:23.081Z,20.30
2022-10-17T18:15:51.839Z,20.30
2022-10-17T18:18:18.843Z,20.30
2022-10-17T18:20:45.536Z,20.30
2022-10-17T18:23:12.458Z,20.20
2022-10-17T18:25:39.446Z,20.20
2022-10-17T18:28:06.351Z,20.20
2022-10-17T18:30:36.252Z,20.10
2022-10-17T18:33:03.098Z,20.10
2022-10-17T18:35:29.802Z,20.10
2022-10-17T18:37:57.035Z,20.00
2022-10-17T18:40:23.769Z,20.00
2022-10-17T18:42:50.523Z,19.90
2022-10-17T18:45:17.459Z,19.90
2022-10-17T18:47:47.091Z,19.80
2022-10-17T18:50:14.469Z,19.80
2022-10-17T18:52:41.165Z,19.70
2022-10-17T18:55:08.084Z,19.70
2022-10-17T18:57:34.814Z,19.70
2022-10-17T19:00:01.498Z,19.70
2022-10-17T19:02:28.363Z,19.70
2022-10-17T19:04:54.991Z,19.60
2022-10-17T19:07:21.743Z,19.60
2022-10-17T19:09:48.869Z,19.50
2022-10-17T19:12:15.613Z,19.40
2022-10-17T19:14:42.283Z,19.30
2022-10-17T19:17:08.994Z,19.10
2022-10-17T19:19:36.525Z,19.00
2022-10-17T19:22:03.782Z,18.90
2022-10-17T19:24:30.523Z,18.80
2022-10-17T19:26:58.222Z,18.60
2022-10-17T19:29:26.064Z,18.60
2022-10-17T19:31:52.933Z,18.40
2022-10-17T19:34:20.456Z,18.30
2022-10-17T19:36:47.372Z,18.30
2022-10-17T19:39:22.843Z,18.20
2022-10-17T19:41:49.509Z,18.10
2022-10-17T19:44:16.317Z,18.10
2022-10-17T19:46:47.118Z,18.00
2022-10-17T19:49:13.983Z,18.00
2022-10-17T19:51:40.685Z,17.90
2022-10-17T19:54:07.513Z,18.00
2022-10-17T19:56:38.346Z,17.90
2022-10-17T19:59:06.304Z,17.90
2022-10-17T20:01:34.574Z,17.90
2022-10-17T20:04:01.724Z,17.80
2022-10-17T20:06:28.634Z,17.70
2022-10-17T20:08:55.626Z,17.70
2022-10-17T20:11:28.406Z,17.70
2022-10-17T20:13:55.544Z,17.70
2022-10-17T20:16:23.578Z,17.60
2022-10-17T20:18:50.845Z,17.60
2022-10-17T20:21:19.377Z,17.50
2022-10-17T20:23:48.098Z,17.50
2022-10-17T20:26:33.230Z,17.50
2022-10-17T20:29:04.130Z,17.60
2022-10-17T20:31:31.076Z,17.60
2022-10-17T20:33:58.859Z,17.60
2022-10-17T20:36:26.244Z,17.60
2022-10-17T20:38:54.106Z,17.60
2022-10-17T20:41:21.161Z,17.60
2022-10-17T20:43:49.839Z,17.70
2022-10-17T20:46:35.211Z,17.60
2022-10-17T20:49:03.804Z,17.50
2022-10-17T20:51:30.799Z,17.50
2022-10-17T20:56:25.432Z,17.40
2022-10-17T20:58:56.602Z,17.30
2022-10-17T21:01:24.174Z,17.30
2022-10-17T21:03:51.051Z,17.30
2022-10-17T21:06:18.146Z,17.20
2022-10-17T21:08:46.107Z,17.20
2022-10-17T21:11:17.524Z,17.10
2022-10-17T21:13:44.706Z,17.10
2022-10-17T21:16:12.826Z,17.20
2022-10-17T21:18:40.121Z,17.10
2022-10-17T21:21:11.062Z,17.20
2022-10-17T21:23:38.238Z,17.20
2022-10-17T21:26:07.090Z,17.30
2022-10-17T21:28:34.444Z,17.40
2022-10-17T21:31:18.251Z,17.50
2022-10-17T21:33:46.807Z,17.60
2022-10-17T21:36:13.961Z,17.70
2022-10-17T21:38:40.903Z,17.70
2022-10-17T21:41:08.430Z,17.80
2022-10-17T21:43:35.648Z,17.80
2022-10-17T21:46:04.044Z,17.80
2022-10-17T21:48:31.083Z,17.80
2022-10-17T21:51:02.390Z,17.80
2022-10-17T21:53:29.223Z,17.80
2022-10-17T21:55:59.296Z,17.80
2022-10-17T21:58:26.462Z,17.80
2022-10-17T22:00:53.241Z,17.80
2022-10-17T22:03:19.973Z,17.80
2022-10-17T22:05:46.707Z,17.80
2022-10-17T22:08:13.600Z,17.90
2022-10-17T22:10:40.911Z,17.90
2022-10-17T22:13:07.749Z,17.90
2022-10-17T22:15:34.462Z,17.90
2022-10-17T22:18:01.236Z,17.90
2022-10-17T22:20:28.191Z,17.80
2022-10-17T22:22:55.034Z,17.80
2022-10-17T22:25:21.794Z,17.70
2022-10-17T22:27:48.499Z,17.60
2022-10-17T22:30:15.246Z,17.50
2022-10-17T22:32:41.989Z,17.40
2022-10-17T22:35:08.986Z,17.30
2022-10-17T22:37:35.788Z,17.10
2022-10-17T22:40:03.401Z,17.00
2022-10-17T22:42:31.693Z,17.00
2022-10-17T22:44:58.563Z,16.90
2022-10-17T22:47:25.346Z,16.90
2022-10-17T22:49:52.359Z,16.80
2022-10-17T22:52:19.153Z,16.80
2022-10-17T22:54:45.959Z,16.80
2022-10-17T22:57:12.767Z,16.90
2022-10-17T22:59:39.439Z,16.90
2022-10-17T23:02:06.417Z,16.90
2022-10-17T23:04:33.188Z,16.90
2022-10-17T23:06:59.860Z,17.00
2022-10-17T23:11:54.221Z,17.20
2022-10-17T23:14:20.982Z,17.20
2022-10-17T23:16:47.794Z,17.30
2022-10-17T23:19:14.462Z,17.30
2022-10-17T23:21:41.180Z,17.30
2022-10-17T23:24:07.867Z,17.40
2022-10-17T23:26:34.543Z,17.40
2022-10-17T23:29:01.245Z,17.40
2022-10-17T23:31:28.209Z,17.40
2022-10-17T23:33:54.948Z,17.40
2022-10-17T23:36:21.960Z,17.40
2022-10-17T23:38:48.860Z,17.40
2022-10-17T23:41:16.204Z,17.40
2022-10-17T23:43:43.343Z,17.40
2022-10-17T23:46:10.307Z,17.40
2022-10-17T23:48:38.563Z,17.40
2022-10-17T23:51:05.886Z,17.40
2022-10-17T23:53:32.655Z,17.40
2022-10-17T23:55:59.406Z,17.40
2022-10-17T23:58:26.174Z,17.40
